sensor_id;sensor_type;location;lat;lon;timestamp;pressure;altitude;pressure_sealevel;temperature;humidity
48027;BME280;50714;49.208;5.364;2022-12-16T00:08:48;98514.69;;;-1.20;61.74
48027;BME280;50714;49.208;5.364;2022-12-16T00:18:48;98518.53;;;-1.14;62.44
48027;BME280;50714;49.208;5.364;2022-12-16T00:28:49;98521.88;;;-1.30;61.90
48027;BME280;50714;49.208;5.364;2022-12-16T00:38:51;98538.22;;;-1.34;62.39
48027;BME280;50714;49.208;5.364;2022-12-16T00:48:51;98547.84;;;-1.79;62.92
48027;BME280;50714;49.208;5.364;2022-12-16T00:58:51;98555.34;;;-2.01;62.94
48027;BME280;50714;49.208;5.364;2022-12-16T01:08:52;98556.69;;;-2.15;64.11
48027;BME280;50714;49.208;5.364;2022-12-16T01:18:52;98564.34;;;-2.22;63.29
48027;BME280;50714;49.208;5.364;2022-12-16T01:28:55;98569.50;;;-2.20;63.42
48027;BME280;50714;49.208;5.364;2022-12-16T01:38:56;98589.84;;;-2.30;63.77
48027;BME280;50714;49.208;5.364;2022-12-16T01:49:00;98600.13;;;-2.27;63.29
48027;BME280;50714;49.208;5.364;2022-12-16T01:59:01;98607.13;;;-2.46;63.35
48027;BME280;50714;49.208;5.364;2022-12-16T02:09:04;98613.66;;;-2.40;63.77
48027;BME280;50714;49.208;5.364;2022-12-16T02:39:21;98628.59;;;-2.68;63.29
48027;BME280;50714;49.208;5.364;2022-12-16T03:09:39;98643.03;;;-2.82;63.30
48027;BME280;50714;49.208;5.364;2022-12-16T03:19:42;98648.91;;;-2.88;62.77
48027;BME280;50714;49.208;5.364;2022-12-16T03:40:00;98671.13;;;-3.10;62.49
48027;BME280;50714;49.208;5.364;2022-12-16T03:50:02;98680.00;;;-3.11;62.98
48027;BME280;50714;49.208;5.364;2022-12-16T04:00:04;98693.53;;;-3.44;62.90
48027;BME280;50714;49.208;5.364;2022-12-16T04:10:06;98697.94;;;-3.54;62.76
48027;BME280;50714;49.208;5.364;2022-12-16T04:20:14;98710.59;;;-3.88;63.28
48027;BME280;50714;49.208;5.364;2022-12-16T04:30:33;98711.09;;;-3.94;63.09
48027;BME280;50714;49.208;5.364;2022-12-16T04:40:34;98736.31;;;-4.22;64.23
48027;BME280;50714;49.208;5.364;2022-12-16T04:50:53;98747.94;;;-4.25;65.59
48027;BME280;50714;49.208;5.364;2022-12-16T05:01:12;98761.31;;;-4.37;66.44
48027;BME280;50714;49.208;5.364;2022-12-16T05:11:31;98772.44;;;-4.34;66.28
48027;BME280;50714;49.208;5.364;2022-12-16T05:21:50;98791.88;;;-4.46;65.75
48027;BME280;50714;49.208;5.364;2022-12-16T05:32:08;98806.47;;;-4.74;65.12
48027;BME280;50714;49.208;5.364;2022-12-16T05:42:28;98818.09;;;-4.76;65.63
48027;BME280;50714;49.208;5.364;2022-12-16T05:52:51;98834.84;;;-4.77;65.86
48027;BME280;50714;49.208;5.364;2022-12-16T06:03:10;98849.88;;;-4.68;66.54
48027;BME280;50714;49.208;5.364;2022-12-16T06:13:29;98863.69;;;-4.98;65.38
48027;BME280;50714;49.208;5.364;2022-12-16T06:24:02;98873.84;;;-5.05;65.91
48027;BME280;50714;49.208;5.364;2022-12-16T06:34:21;98893.94;;;-5.15;64.77
48027;BME280;50714;49.208;5.364;2022-12-16T06:44:40;98899.56;;;-5.31;65.47
48027;BME280;50714;49.208;5.364;2022-12-16T06:54:59;98911.53;;;-5.27;65.14
48027;BME280;50714;49.208;5.364;2022-12-16T07:05:18;98936.72;;;-5.35;65.70
48027;BME280;50714;49.208;5.364;2022-12-16T07:15:37;98955.38;;;-5.27;65.99
48027;BME280;50714;49.208;5.364;2022-12-16T07:25:56;98981.09;;;-5.31;66.83
48027;BME280;50714;49.208;5.364;2022-12-16T07:36:15;98977.38;;;-5.28;66.40
48027;BME280;50714;49.208;5.364;2022-12-16T07:46:34;98998.31;;;-5.27;66.51
48027;BME280;50714;49.208;5.364;2022-12-16T07:56:53;99016.16;;;-5.08;65.58
48027;BME280;50714;49.208;5.364;2022-12-16T08:07:13;99028.13;;;-5.04;65.61
48027;BME280;50714;49.208;5.364;2022-12-16T08:17:32;99051.50;;;-4.77;64.96
48027;BME280;50714;49.208;5.364;2022-12-16T08:28:08;99053.53;;;-4.69;65.22
48027;BME280;50714;49.208;5.364;2022-12-16T08:38:27;99063.47;;;-4.39;65.16
48027;BME280;50714;49.208;5.364;2022-12-16T08:48:46;99066.69;;;-4.14;65.16
48027;BME280;50714;49.208;5.364;2022-12-16T08:59:05;99079.38;;;-3.85;65.14
48027;BME280;50714;49.208;5.364;2022-12-16T09:09:24;99085.34;;;-3.40;65.49
48027;BME280;50714;49.208;5.364;2022-12-16T09:19:43;99097.72;;;-3.08;65.50
48027;BME280;50714;49.208;5.364;2022-12-16T09:30:02;99107.56;;;-2.69;65.22
48027;BME280;50714;49.208;5.364;2022-12-16T09:40:22;99120.28;;;-2.32;65.65
48027;BME280;50714;49.208;5.364;2022-12-16T09:50:57;99118.19;;;-0.33;66.43
48027;BME280;50714;49.208;5.364;2022-12-16T10:01:20;99132.47;;;1.64;66.99
48027;BME280;50714;49.208;5.364;2022-12-16T10:11:56;99127.47;;;4.18;64.61
48027;BME280;50714;49.208;5.364;2022-12-16T10:22:39;99140.44;;;5.30;59.91
48027;BME280;50714;49.208;5.364;2022-12-16T10:33:00;99123.75;;;3.15;60.83
48027;BME280;50714;49.208;5.364;2022-12-16T11:04:38;99134.38;;;3.96;58.97
48027;BME280;50714;49.208;5.364;2022-12-16T11:14:57;99137.91;;;2.49;58.66
48027;BME280;50714;49.208;5.364;2022-12-16T11:25:18;99143.50;;;2.03;58.76
48027;BME280;50714;49.208;5.364;2022-12-16T11:35:52;99137.88;;;1.81;59.53
48027;BME280;50714;49.208;5.364;2022-12-16T11:46:23;99146.84;;;1.54;60.05
48027;BME280;50714;49.208;5.364;2022-12-16T11:56:44;99148.13;;;1.50;59.90
48027;BME280;50714;49.208;5.364;2022-12-16T12:07:17;99149.91;;;1.41;59.16
48027;BME280;50714;49.208;5.364;2022-12-16T12:59:50;99168.75;;;1.30;60.88
48027;BME280;50714;49.208;5.364;2022-12-16T13:31:02;99184.38;;;1.33;60.90
48027;BME280;50714;49.208;5.364;2022-12-16T13:51:59;99201.47;;;1.30;60.96
48027;BME280;50714;49.208;5.364;2022-12-16T14:02:27;99217.28;;;1.32;61.34
48027;BME280;50714;49.208;5.364;2022-12-16T14:13:04;99224.25;;;1.33;60.68
48027;BME280;50714;49.208;5.364;2022-12-16T14:23:37;99234.34;;;1.29;61.27
48027;BME280;50714;49.208;5.364;2022-12-16T14:34:01;99252.56;;;1.24;61.37
48027;BME280;50714;49.208;5.364;2022-12-16T14:44:22;99267.28;;;1.19;61.81
48027;BME280;50714;49.208;5.364;2022-12-16T14:54:42;99278.16;;;1.08;61.83
48027;BME280;50714;49.208;5.364;2022-12-16T15:05:01;99289.56;;;0.90;62.30
48027;BME280;50714;49.208;5.364;2022-12-16T15:15:36;99311.72;;;0.72;62.94
48027;BME280;50714;49.208;5.364;2022-12-16T15:25:57;99331.63;;;0.48;63.14
48027;BME280;50714;49.208;5.364;2022-12-16T15:46:46;99350.00;;;-0.07;64.45
48027;BME280;50714;49.208;5.364;2022-12-16T15:57:29;99359.75;;;-0.36;67.03
48027;BME280;50714;49.208;5.364;2022-12-16T16:07:49;99381.63;;;-0.53;67.84
48027;BME280;50714;49.208;5.364;2022-12-16T16:18:08;99401.31;;;-0.86;68.50
48027;BME280;50714;49.208;5.364;2022-12-16T16:28:27;99417.81;;;-1.04;69.69
48027;BME280;50714;49.208;5.364;2022-12-16T16:38:47;99431.56;;;-1.19;69.91
48027;BME280;50714;49.208;5.364;2022-12-16T16:49:12;99442.97;;;-1.40;71.06
48027;BME280;50714;49.208;5.364;2022-12-16T16:59:36;99461.69;;;-1.52;70.87
48027;BME280;50714;49.208;5.364;2022-12-16T17:09:55;99469.47;;;-1.72;70.73
48027;BME280;50714;49.208;5.364;2022-12-16T17:20:15;99483.81;;;-1.85;70.86
48027;BME280;50714;49.208;5.364;2022-12-16T17:30:34;99503.59;;;-2.00;70.96
48027;BME280;50714;49.208;5.364;2022-12-16T17:40:53;99516.44;;;-2.07;70.68
48027;BME280;50714;49.208;5.364;2022-12-16T17:51:12;99534.38;;;-2.33;70.74
48027;BME280;50714;49.208;5.364;2022-12-16T18:01:31;99552.16;;;-2.46;71.12
48027;BME280;50714;49.208;5.364;2022-12-16T18:11:50;99555.28;;;-2.63;71.38
48027;BME280;50714;49.208;5.364;2022-12-16T18:22:09;99575.09;;;-2.58;70.65
48027;BME280;50714;49.208;5.364;2022-12-16T18:32:28;99575.31;;;-2.72;71.23
48027;BME280;50714;49.208;5.364;2022-12-16T18:42:47;99582.84;;;-2.90;70.98
48027;BME280;50714;49.208;5.364;2022-12-16T18:53:06;99590.59;;;-2.99;70.70
48027;BME280;50714;49.208;5.364;2022-12-16T19:03:25;99608.56;;;-3.04;70.95
48027;BME280;50714;49.208;5.364;2022-12-16T19:13:44;99608.63;;;-2.93;71.50
48027;BME280;50714;49.208;5.364;2022-12-16T19:24:03;99623.31;;;-2.78;70.55
48027;BME280;50714;49.208;5.364;2022-12-16T19:34:42;99638.19;;;-2.77;70.46
48027;BME280;50714;49.208;5.364;2022-12-16T19:45:01;99644.78;;;-2.83;70.54
48027;BME280;50714;49.208;5.364;2022-12-16T19:55:19;99666.91;;;-2.84;69.80
48027;BME280;50714;49.208;5.364;2022-12-16T20:05:38;99684.53;;;-2.84;69.71
48027;BME280;50714;49.208;5.364;2022-12-16T20:16:06;99699.75;;;-2.88;69.42
48027;BME280;50714;49.208;5.364;2022-12-16T20:26:25;99707.06;;;-2.91;69.02
48027;BME280;50714;49.208;5.364;2022-12-16T20:36:45;99723.84;;;-2.92;68.99
48027;BME280;50714;49.208;5.364;2022-12-16T20:47:04;99734.75;;;-2.97;68.45
48027;BME280;50714;49.208;5.364;2022-12-16T20:57:23;99757.03;;;-3.01;68.48
48027;BME280;50714;49.208;5.364;2022-12-16T21:07:42;99772.50;;;-3.07;67.95
48027;BME280;50714;49.208;5.364;2022-12-16T21:18:01;99781.81;;;-3.15;68.08
48027;BME280;50714;49.208;5.364;2022-12-16T21:28:20;99784.13;;;-3.23;68.51
48027;BME280;50714;49.208;5.364;2022-12-16T21:38:39;99795.75;;;-3.25;68.25
48027;BME280;50714;49.208;5.364;2022-12-16T21:48:58;99807.63;;;-3.31;67.80
48027;BME280;50714;49.208;5.364;2022-12-16T21:59:17;99831.88;;;-3.38;68.26
48027;BME280;50714;49.208;5.364;2022-12-16T22:09:37;99836.53;;;-3.42;68.61
48027;BME280;50714;49.208;5.364;2022-12-16T22:19:55;99845.81;;;-3.49;68.58
48027;BME280;50714;49.208;5.364;2022-12-16T22:30:15;99857.09;;;-3.47;68.68
48027;BME280;50714;49.208;5.364;2022-12-16T22:40:34;99868.91;;;-3.53;68.17
48027;BME280;50714;49.208;5.364;2022-12-16T22:50:53;99887.09;;;-4.00;67.83
48027;BME280;50714;49.208;5.364;2022-12-16T23:01:12;99888.69;;;-4.37;70.37
48027;BME280;50714;49.208;5.364;2022-12-16T23:11:35;99885.00;;;-4.35;69.69
48027;BME280;50714;49.208;5.364;2022-12-16T23:21:54;99887.44;;;-4.32;69.96
48027;BME280;50714;49.208;5.364;2022-12-16T23:32:13;99897.59;;;-4.53;68.51
48027;BME280;50714;49.208;5.364;2022-12-16T23:42:32;99897.50;;;-4.51;69.10
48027;BME280;50714;49.208;5.364;2022-12-16T23:53:03;99895.72;;;-4.65;69.79
